Time;durP1;ratioP1;P1;durP2;ratioP2;P2;SDS_P1;SDS_P2;PMS_P1;PMS_P2;Temp;Humidity;BMP_temperature;BMP_pressure;BME280_temperature;BME280_humidity;BME280_pressure;Samples;Min_cycle;Max_cycle;Signal;HPM_P1;HPM_P2
2023/09/11 00:00:52;;;;;;;5.50;4.10;;;;;;;15.28;59.57;100281.75;106633;1258;72534;-77
2023/09/11 00:03:19;;;;;;;6.30;4.10;;;;;;;15.28;59.78;100283.98;105943;1258;60468;-79
2023/09/11 00:05:48;;;;;;;6.20;4.30;;;;;;;15.25;59.86;100283.17;105823;1257;60409;-79
2023/09/11 00:08:17;;;;;;;6.70;4.50;;;;;;;15.23;60.09;100283.27;105769;1254;73790;-80
2023/09/11 00:10:45;;;;;;;7.80;4.10;;;;;;;15.21;60.15;100284.40;105847;1258;69202;-77
2023/09/11 00:13:12;;;;;;;5.80;3.90;;;;;;;15.19;60.18;100283.05;105948;1257;71077;-77
2023/09/11 00:15:39;;;;;;;6.70;4.20;;;;;;;15.18;60.42;100281.10;105835;1253;60454;-76
2023/09/11 00:18:07;;;;;;;6.00;4.30;;;;;;;15.15;60.51;100279.96;106456;1254;60452;-77
2023/09/11 00:20:34;;;;;;;7.80;3.70;;;;;;;15.13;60.62;100280.71;106167;1254;74132;-75
2023/09/11 00:23:02;;;;;;;7.70;3.80;;;;;;;15.11;60.65;100280.48;105627;1253;70165;-76
2023/09/11 00:25:30;;;;;;;6.50;4.50;;;;;;;15.08;60.77;100278.46;106188;1256;71446;-77
2023/09/11 00:27:57;;;;;;;5.20;3.50;;;;;;;15.06;60.93;100277.31;106214;1253;60443;-77
2023/09/11 00:30:25;;;;;;;7.80;4.00;;;;;;;15.04;61.10;100278.45;106200;1257;59303;-77
2023/09/11 00:32:52;;;;;;;5.50;4.10;;;;;;;15.01;61.14;100278.23;107432;1253;72735;-78
2023/09/11 00:35:20;;;;;;;5.10;3.40;;;;;;;15.00;61.49;100276.81;107083;1256;68702;-78
2023/09/11 00:37:47;;;;;;;6.50;4.00;;;;;;;14.98;61.36;100273.13;106607;1254;72569;-76
2023/09/11 00:40:15;;;;;;;7.40;3.80;;;;;;;14.96;61.25;100275.63;105791;1253;60462;-77
2023/09/11 00:42:42;;;;;;;5.20;3.20;;;;;;;14.93;61.57;100269.52;106038;1253;60395;-78
2023/09/11 00:45:11;;;;;;;7.90;4.30;;;;;;;14.91;61.82;100272.49;105983;1257;72769;-77
2023/09/11 00:47:39;;;;;;;6.40;3.70;;;;;;;14.88;61.75;100269.86;105919;1258;68234;-77
2023/09/11 00:50:07;;;;;;;5.30;4.00;;;;;;;14.85;61.82;100268.91;105616;1258;72676;-77
2023/09/11 00:52:35;;;;;;;6.70;3.70;;;;;;;14.82;62.08;100265.54;105898;1253;60569;-76
2023/09/11 00:55:03;;;;;;;5.80;3.70;;;;;;;14.79;62.14;100265.20;105874;1254;60473;-77
2023/09/11 00:57:30;;;;;;;7.20;4.20;;;;;;;14.76;62.40;100266.27;105582;1259;73931;-77
2023/09/11 00:59:58;;;;;;;6.80;4.10;;;;;;;14.71;62.28;100262.70;105684;1255;68716;-77
2023/09/11 01:02:25;;;;;;;6.00;4.20;;;;;;;14.68;62.47;100261.29;105804;1260;71354;-76
2023/09/11 01:04:53;;;;;;;6.80;4.30;;;;;;;14.65;62.44;100256.65;105685;1260;60616;-76
2023/09/11 01:07:20;;;;;;;5.50;3.90;;;;;;;14.62;62.75;100253.77;106080;1256;60319;-76
2023/09/11 01:09:48;;;;;;;6.40;4.60;;;;;;;14.60;62.82;100250.16;105907;1257;73088;-77
2023/09/11 01:12:15;;;;;;;6.00;4.50;;;;;;;14.58;62.80;100251.34;105896;1253;71062;-75
2023/09/11 01:14:42;;;;;;;7.10;4.50;;;;;;;14.55;62.84;100245.70;105969;1253;72828;-78
2023/09/11 01:17:49;;;;;;;4.60;3.60;;;;;;;14.53;63.04;100243.98;105848;1257;60419;-76
2023/09/11 01:20:55;;;;;;;7.90;4.00;;;;;;;14.50;63.20;100243.23;106068;1256;60442;-76
2023/09/11 01:23:37;;;;;;;5.40;4.80;;;;;;;14.48;63.50;100243.70;105734;1259;73787;-76
2023/09/11 01:26:06;;;;;;;10.00;4.80;;;;;;;14.45;63.60;100241.90;105828;1254;68292;-76
2023/09/11 01:29:02;;;;;;;5.70;4.20;;;;;;;14.44;63.62;100236.73;105530;1259;72461;-78
2023/09/11 01:31:34;;;;;;;5.80;4.10;;;;;;;14.42;63.83;100233.49;105799;1254;60479;-76
2023/09/11 01:34:02;;;;;;;7.50;4.60;;;;;;;14.41;63.73;100230.04;106040;1253;60450;-76
2023/09/11 01:36:34;;;;;;;5.30;4.20;;;;;;;14.41;63.93;100230.58;106457;1253;74213;-76
2023/09/11 01:39:01;;;;;;;5.90;5.00;;;;;;;14.42;63.90;100234.40;107790;1253;69082;-75
2023/09/11 01:41:32;;;;;;;8.10;4.60;;;;;;;14.42;64.02;100236.17;107991;1254;71110;-74
2023/09/11 01:44:18;;;;;;;5.30;4.20;;;;;;;14.42;64.28;100237.57;107647;1253;62046;-75
2023/09/11 01:46:45;;;;;;;5.40;4.30;;;;;;;14.42;64.30;100230.86;105935;1257;60339;-75
2023/09/11 01:49:13;;;;;;;5.00;4.20;;;;;;;14.41;64.32;100228.42;105977;1254;73769;-76
2023/09/11 01:51:41;;;;;;;6.00;4.20;;;;;;;14.41;64.35;100224.95;105674;1256;68714;-75
2023/09/11 01:54:09;;;;;;;7.30;4.50;;;;;;;14.41;64.41;100228.66;105970;1259;72895;-77
2023/09/11 01:56:36;;;;;;;6.20;4.30;;;;;;;14.42;64.39;100232.50;105734;1256;60479;-76
2023/09/11 01:59:04;;;;;;;5.00;4.40;;;;;;;14.41;64.36;100229.36;105826;1260;60345;-76
2023/09/11 02:01:31;;;;;;;8.30;4.50;;;;;;;14.40;64.49;100227.38;105830;1253;74014;-76
2023/09/11 02:03:59;;;;;;;6.00;4.40;;;;;;;14.38;64.69;100226.40;105645;1257;68224;-76
2023/09/11 02:06:27;;;;;;;11.20;5.20;;;;;;;14.35;64.69;100226.45;105961;1254;72719;-77
2023/09/11 02:08:56;;;;;;;6.90;4.90;;;;;;;14.33;64.65;100226.89;105849;1255;60415;-77
2023/09/11 02:11:23;;;;;;;8.00;4.60;;;;;;;14.31;64.82;100226.02;105867;1253;60632;-77
2023/09/11 02:13:52;;;;;;;6.80;4.90;;;;;;;14.30;64.71;100225.77;105848;1255;73882;-78
2023/09/11 02:16:19;;;;;;;7.40;4.80;;;;;;;14.29;64.94;100222.60;105798;1253;69158;-80
2023/09/11 02:18:47;;;;;;;5.40;4.50;;;;;;;14.26;65.07;100219.70;105924;1259;70377;-78
2023/09/11 02:21:14;;;;;;;5.20;4.60;;;;;;;14.25;65.20;100222.41;105754;1254;60606;-77
2023/09/11 02:23:42;;;;;;;7.40;4.70;;;;;;;14.22;65.21;100222.39;105787;1253;60369;-77
2023/09/11 02:26:09;;;;;;;5.40;4.40;;;;;;;14.21;65.32;100222.13;105634;1253;72182;-79
2023/09/11 02:28:37;;;;;;;5.60;4.40;;;;;;;14.20;65.73;100225.57;105826;1253;69940;-76
2023/09/11 02:31:05;;;;;;;6.80;4.30;;;;;;;14.22;65.87;100223.75;106039;1261;72815;-76
2023/09/11 02:33:32;;;;;;;4.90;3.90;;;;;;;14.32;65.74;100220.46;106037;1257;60552;-78
2023/09/11 02:36:00;;;;;;;5.10;4.20;;;;;;;14.35;65.75;100224.34;108219;1253;59294;-76
2023/09/11 02:38:27;;;;;;;8.40;5.20;;;;;;;14.34;65.93;100221.89;106906;1256;73852;-75
2023/09/11 02:40:55;;;;;;;6.30;5.20;;;;;;;14.35;65.97;100222.37;105743;1253;70116;-77
2023/09/11 02:43:36;;;;;;;8.90;5.30;;;;;;;14.35;66.08;100217.75;105741;1254;72727;-76
2023/09/11 02:46:04;;;;;;;9.70;6.30;;;;;;;14.34;66.22;100217.16;108080;1253;60491;-76
2023/09/11 02:48:32;;;;;;;9.40;6.10;;;;;;;14.33;66.01;100215.67;108820;1252;59182;-76
2023/09/11 02:51:00;;;;;;;8.60;6.00;;;;;;;14.33;65.93;100218.12;107302;1254;72611;-78
2023/09/11 02:53:27;;;;;;;6.80;5.00;;;;;;;14.33;65.60;100222.28;105955;1253;68714;-75
2023/09/11 02:55:55;;;;;;;11.30;6.00;;;;;;;14.30;65.23;100216.67;105553;1254;72562;-76
2023/09/11 02:58:23;;;;;;;10.70;5.80;;;;;;;14.29;65.53;100222.59;105549;1254;60540;-78
2023/09/11 03:00:51;;;;;;;9.80;5.70;;;;;;;14.26;65.35;100219.25;105643;1254;60544;-77
2023/09/11 03:03:19;;;;;;;7.80;5.60;;;;;;;14.23;65.35;100217.59;105988;1253;73935;-77
2023/09/11 03:05:54;;;;;;;8.20;5.50;;;;;;;14.22;65.09;100217.39;106012;1257;67906;-76
2023/09/11 03:08:22;;;;;;;9.70;5.60;;;;;;;14.20;65.26;100215.91;105884;1254;72730;-75
2023/09/11 03:10:50;;;;;;;9.00;5.40;;;;;;;14.19;65.12;100216.96;105702;1253;60549;-74
2023/09/11 03:13:18;;;;;;;9.20;5.30;;;;;;;14.17;64.93;100214.51;105619;1254;61064;-75
2023/09/11 03:15:45;;;;;;;6.80;5.30;;;;;;;14.15;64.94;100218.70;105722;1253;73857;-76
2023/09/11 03:18:13;;;;;;;6.70;4.90;;;;;;;14.14;64.98;100220.46;105638;1254;70428;-76
2023/09/11 03:20:41;;;;;;;7.10;5.60;;;;;;;14.12;64.91;100217.60;105541;1256;72609;-76
2023/09/11 03:23:08;;;;;;;8.80;5.50;;;;;;;14.10;64.91;100214.77;105747;1256;60644;-77
2023/09/11 03:25:37;;;;;;;8.20;5.30;;;;;;;14.09;64.99;100216.50;105824;1258;60391;-78
2023/09/11 03:28:05;;;;;;;8.00;5.70;;;;;;;14.08;65.04;100214.52;105653;1254;73921;-78
2023/09/11 03:30:33;;;;;;;8.00;5.60;;;;;;;14.07;65.15;100216.10;105743;1253;70283;-79
2023/09/11 03:33:01;;;;;;;8.50;6.00;;;;;;;14.05;65.29;100214.67;105543;1254;72915;-80
2023/09/11 03:35:29;;;;;;;7.40;5.60;;;;;;;14.04;65.27;100214.98;105731;1254;60611;-79
2023/09/11 03:37:56;;;;;;;8.40;5.10;;;;;;;14.03;65.44;100212.66;105879;1253;60461;-78
2023/09/11 03:40:25;;;;;;;6.50;4.90;;;;;;;14.01;65.43;100213.33;105899;1253;72262;-77
2023/09/11 03:42:52;;;;;;;7.90;5.50;;;;;;;14.02;65.30;100213.86;105790;1259;69196;-78
2023/09/11 03:45:20;;;;;;;7.70;4.60;;;;;;;14.01;65.45;100212.72;105898;1253;70408;-79
2023/09/11 03:47:48;;;;;;;10.20;5.00;;;;;;;14.06;65.41;100207.68;106271;1256;61594;-78
2023/09/11 03:50:15;;;;;;;9.90;5.50;;;;;;;14.17;65.11;100209.40;106999;1253;60276;-79
2023/09/11 03:52:43;;;;;;;9.00;5.00;;;;;;;14.21;65.09;100206.77;108326;1253;73842;-79
2023/09/11 03:55:11;;;;;;;8.60;6.30;;;;;;;14.23;64.87;100209.95;107841;1253;69003;-77
2023/09/11 03:57:38;;;;;;;7.90;6.00;;;;;;;14.25;64.69;100211.39;107146;1255;71397;-76
2023/09/11 04:00:07;;;;;;;8.80;5.00;;;;;;;14.29;64.50;100211.30;107735;1253;60525;-80
2023/09/11 04:02:40;;;;;;;10.40;5.50;;;;;;;14.32;64.42;100212.73;108230;1252;60486;-80
2023/09/11 04:05:08;;;;;;;9.50;6.30;;;;;;;14.35;64.07;100211.00;107064;1254;74159;-80
2023/09/11 04:07:35;;;;;;;10.10;5.80;;;;;;;14.36;64.08;100210.36;106180;1253;70105;-78
2023/09/11 04:10:03;;;;;;;13.40;5.20;;;;;;;14.36;63.61;100212.67;105783;1258;72704;-77
2023/09/11 04:12:30;;;;;;;18.80;6.60;;;;;;;14.38;63.60;100211.80;105764;1253;60443;-79
2023/09/11 04:14:58;;;;;;;10.90;7.00;;;;;;;14.39;63.23;100214.08;105844;1258;60451;-77
2023/09/11 04:17:25;;;;;;;19.10;7.80;;;;;;;14.41;63.20;100213.39;105746;1255;73762;-77
2023/09/11 04:19:52;;;;;;;18.60;7.70;;;;;;;14.42;62.95;100217.83;105841;1253;70318;-78
2023/09/11 04:22:20;;;;;;;15.30;6.90;;;;;;;14.44;62.83;100215.64;105872;1257;72716;-78
2023/09/11 04:24:47;;;;;;;16.00;8.00;;;;;;;14.45;62.63;100214.06;105902;1253;60518;-77
2023/09/11 04:27:15;;;;;;;15.40;7.30;;;;;;;14.46;62.27;100210.90;106011;1253;60525;-78
2023/09/11 04:29:43;;;;;;;11.80;6.50;;;;;;;14.48;62.37;100210.85;105828;1253;72874;-74
2023/09/11 04:32:12;;;;;;;16.20;7.40;;;;;;;14.51;62.06;100211.27;105750;1258;69222;-76
2023/09/11 04:34:40;;;;;;;16.40;6.80;;;;;;;14.53;61.89;100210.08;105865;1257;72979;-76
2023/09/11 04:37:07;;;;;;;14.70;7.50;;;;;;;14.55;61.90;100205.09;105776;1253;60466;-75
2023/09/11 04:39:35;;;;;;;20.30;8.30;;;;;;;14.56;61.76;100207.11;105740;1259;60735;-77
2023/09/11 04:42:03;;;;;;;24.80;8.70;;;;;;;14.55;61.60;100207.67;105926;1256;73771;-75
2023/09/11 04:44:31;;;;;;;25.40;9.10;;;;;;;14.55;61.71;100208.95;105791;1260;69078;-76
2023/09/11 04:46:59;;;;;;;20.20;8.50;;;;;;;14.56;61.54;100209.41;105926;1253;70623;-77
2023/09/11 04:49:26;;;;;;;25.80;8.80;;;;;;;14.58;61.33;100205.67;105868;1253;60547;-78
2023/09/11 04:51:54;;;;;;;32.50;9.10;;;;;;;14.60;61.12;100200.23;106014;1256;60586;-78
2023/09/11 04:54:21;;;;;;;30.60;10.20;;;;;;;14.63;60.98;100200.64;105756;1260;72901;-79
2023/09/11 04:56:49;;;;;;;25.80;9.20;;;;;;;14.65;61.12;100197.13;106883;1253;70172;-78
2023/09/11 04:59:16;;;;;;;27.90;9.20;;;;;;;14.68;61.01;100193.91;107924;1253;71665;-79
2023/09/11 05:01:43;;;;;;;32.80;8.50;;;;;;;14.71;60.92;100190.52;107719;1254;234635;-77
2023/09/11 05:05:30;;;;;;;28.20;9.50;;;;;;;14.81;61.09;100190.48;103079;1292;600621;-76
2023/09/11 05:07:58;;;;;;;25.40;8.10;;;;;;;14.87;61.08;100195.44;105208;1268;59122;-77
2023/09/11 05:10:25;;;;;;;21.30;8.80;;;;;;;14.95;60.83;100194.11;105001;1266;59292;-78
2023/09/11 05:12:53;;;;;;;24.00;8.80;;;;;;;15.03;60.67;100197.38;105236;1268;72179;-76
2023/09/11 05:15:21;;;;;;;24.90;9.30;;;;;;;15.11;60.47;100195.17;105820;1262;68863;-76
2023/09/11 05:17:48;;;;;;;30.20;9.00;;;;;;;15.19;60.36;100192.96;107041;1254;72663;-79
2023/09/11 05:20:16;;;;;;;26.60;9.10;;;;;;;15.26;60.16;100193.73;107520;1256;175442;-77
2023/09/11 05:22:43;;;;;;;35.60;10.30;;;;;;;15.33;60.05;100192.19;107435;1253;60165;-77
2023/09/11 05:25:11;;;;;;;34.60;9.40;;;;;;;15.39;59.63;100194.65;106316;1253;72321;-79
2023/09/11 05:27:38;;;;;;;23.40;9.40;;;;;;;15.44;59.75;100190.10;105988;1252;70109;-77
2023/09/11 05:30:07;;;;;;;20.30;9.60;;;;;;;15.51;59.48;100190.98;105967;1252;71392;-77
2023/09/11 05:32:35;;;;;;;22.50;9.00;;;;;;;15.56;59.24;100191.95;106089;1253;60080;-79
2023/09/11 05:35:06;;;;;;;17.80;7.80;;;;;;;15.60;58.78;100196.94;106071;1252;59358;-77
2023/09/11 05:37:33;;;;;;;19.80;8.00;;;;;;;15.63;58.24;100200.63;106331;1252;70542;-77
2023/09/11 05:40:02;;;;;;;15.90;7.80;;;;;;;15.66;58.17;100200.26;106135;1253;69926;-78
2023/09/11 05:42:30;;;;;;;20.10;7.80;;;;;;;15.68;58.12;100196.70;108453;1253;71403;-80
2023/09/11 05:44:57;;;;;;;28.00;8.20;;;;;;;15.74;57.74;100199.48;109137;1253;59667;-81
2023/09/11 05:47:25;;;;;;;20.10;7.80;;;;;;;15.79;57.84;100195.77;107569;1257;60321;-80
2023/09/11 05:49:52;;;;;;;15.40;7.30;;;;;;;15.86;57.51;100194.17;107357;1253;71786;-81
2023/09/11 05:52:20;;;;;;;16.50;7.80;;;;;;;15.96;57.35;100197.60;107816;1253;68874;-81
2023/09/11 05:54:47;;;;;;;16.40;7.80;;;;;;;16.06;57.02;100192.09;106976;1253;72566;-80
2023/09/11 05:57:14;;;;;;;15.30;6.60;;;;;;;16.18;56.39;100190.09;106782;1254;59630;-80
2023/09/11 05:59:42;;;;;;;16.00;6.50;;;;;;;16.27;56.07;100188.27;106570;1260;62483;-81
2023/09/11 06:02:09;;;;;;;15.40;6.80;;;;;;;16.36;55.85;100189.70;107558;1257;73164;-79
2023/09/11 06:04:37;;;;;;;16.10;6.60;;;;;;;16.46;55.44;100188.95;108202;1256;69044;-80
2023/09/11 06:07:04;;;;;;;15.90;7.10;;;;;;;16.57;55.23;100189.10;108338;1257;71065;-80
2023/09/11 06:09:33;;;;;;;13.80;6.90;;;;;;;16.66;55.04;100189.08;107432;1253;60130;-81
2023/09/11 06:12:00;;;;;;;18.10;7.10;;;;;;;16.78;54.82;100187.98;107036;1254;60048;-82
2023/09/11 06:14:28;;;;;;;18.10;7.40;;;;;;;16.90;54.62;100190.06;108470;1252;71805;-81
2023/09/11 06:16:56;;;;;;;19.20;8.10;;;;;;;17.01;54.38;100188.43;107811;1257;70369;-82
2023/09/11 06:19:23;;;;;;;11.90;7.50;;;;;;;17.08;54.31;100188.95;106291;1253;71467;-82
2023/09/11 06:21:50;;;;;;;14.90;6.70;;;;;;;17.17;54.11;100188.62;107197;1252;60018;-80
2023/09/11 06:24:18;;;;;;;14.80;7.20;;;;;;;17.28;53.77;100190.31;106239;1253;61230;-81
2023/09/11 06:26:45;;;;;;;13.60;6.10;;;;;;;17.36;53.33;100193.89;106078;1258;71614;-81
2023/09/11 06:29:13;;;;;;;16.30;6.20;;;;;;;17.41;52.82;100197.23;106139;1257;69059;-81
2023/09/11 06:31:41;;;;;;;12.60;6.20;;;;;;;17.45;52.69;100196.48;106170;1253;72701;-81
2023/09/11 06:34:08;;;;;;;16.20;6.80;;;;;;;17.51;52.62;100194.48;106195;1253;60175;-81
2023/09/11 06:36:35;;;;;;;13.70;6.40;;;;;;;17.59;52.44;100196.77;106010;1253;60003;-81
2023/09/11 06:39:05;;;;;;;13.00;6.10;;;;;;;17.67;52.15;100193.23;106102;1253;71758;-82
2023/09/11 06:41:33;;;;;;;13.90;6.40;;;;;;;17.76;52.15;100192.77;106075;1257;69459;-81
2023/09/11 06:44:02;;;;;;;23.50;6.80;;;;;;;17.87;52.06;100193.59;105896;1253;73053;-81
2023/09/11 06:46:29;;;;;;;13.00;6.20;;;;;;;18.01;51.86;100191.88;106073;1253;60275;-81
2023/09/11 06:48:58;;;;;;;11.80;5.60;;;;;;;18.15;51.29;100195.84;106004;1253;59625;-82
2023/09/11 06:51:25;;;;;;;10.50;4.60;;;;;;;18.27;50.97;100193.85;106109;1253;71021;-81
2023/09/11 06:53:54;;;;;;;14.50;5.40;;;;;;;18.37;50.33;100187.64;106133;1253;69049;-81
2023/09/11 06:56:21;;;;;;;15.10;5.10;;;;;;;18.46;50.27;100188.91;106160;1256;71465;-81
2023/09/11 06:58:49;;;;;;;11.30;5.60;;;;;;;18.54;49.79;100189.48;106800;1256;59631;-81
2023/09/11 07:01:16;;;;;;;13.10;5.80;;;;;;;18.59;49.80;100189.81;106761;1258;59096;-82
2023/09/11 07:03:45;;;;;;;19.60;6.80;;;;;;;18.67;49.63;100187.47;106392;1257;72932;-81
2023/09/11 07:06:13;;;;;;;12.20;5.10;;;;;;;18.76;49.61;100190.23;106192;1253;68364;-81
2023/09/11 07:08:41;;;;;;;10.90;4.50;;;;;;;18.87;49.29;100187.13;107225;1253;71180;-80
2023/09/11 07:11:09;;;;;;;17.50;4.70;;;;;;;18.98;48.87;100189.03;108960;1253;58854;-82
2023/09/11 07:13:37;;;;;;;8.60;4.70;;;;;;;19.13;48.75;100185.38;108995;1253;59217;-82
2023/09/11 07:16:06;;;;;;;7.70;4.10;;;;;;;19.30;48.29;100184.10;106909;1253;73686;-81
2023/09/11 07:18:34;;;;;;;8.60;4.80;;;;;;;19.47;48.17;100183.52;106711;1257;71047;-82
2023/09/11 07:21:01;;;;;;;8.70;3.90;;;;;;;19.65;47.56;100183.45;106489;1253;72613;-81
2023/09/11 07:23:29;;;;;;;8.40;4.10;;;;;;;19.80;47.17;100178.65;106398;1257;59232;-80
2023/09/11 07:25:57;;;;;;;8.70;4.10;;;;;;;19.97;47.48;100184.60;106272;1253;59881;-80
2023/09/11 07:28:26;;;;;;;5.10;2.90;;;;;;;20.18;46.85;100186.00;106324;1257;73116;-81
2023/09/11 07:30:54;;;;;;;7.70;3.60;;;;;;;20.39;45.92;100179.09;106584;1253;69015;-81
2023/09/11 07:33:25;;;;;;;7.90;4.00;;;;;;;20.57;45.71;100175.90;106649;1253;71655;-82
2023/09/11 07:35:52;;;;;;;10.70;4.80;;;;;;;20.78;45.46;100172.05;106647;1254;60784;-81
2023/09/11 07:38:20;;;;;;;8.20;4.90;;;;;;;20.96;45.00;100173.16;107157;1257;59097;-80
2023/09/11 07:40:50;;;;;;;8.10;4.70;;;;;;;21.12;44.79;100167.52;107141;1253;71839;-81
2023/09/11 07:43:17;;;;;;;7.90;4.60;;;;;;;21.33;44.39;100167.30;106807;1253;69656;-82
2023/09/11 07:45:47;;;;;;;9.90;6.00;;;;;;;21.55;44.25;100169.69;106512;1253;72707;-81
2023/09/11 07:48:14;;;;;;;13.60;6.60;;;;;;;21.73;44.08;100159.84;106691;1258;59629;-81
2023/09/11 07:50:42;;;;;;;13.10;7.60;;;;;;;21.88;43.49;100164.20;106626;1254;59567;-82
2023/09/11 07:53:09;;;;;;;15.60;7.00;;;;;;;21.87;43.27;100160.63;106193;1253;72930;-82
2023/09/11 07:55:37;;;;;;;10.00;6.60;;;;;;;21.82;43.66;100157.73;106254;1253;68909;-81
2023/09/11 07:58:04;;;;;;;10.60;7.50;;;;;;;21.89;43.71;100156.71;106162;1253;72737;-80
2023/09/11 08:00:32;;;;;;;12.30;6.10;;;;;;;22.02;43.90;100159.09;106193;1253;59679;-82
2023/09/11 08:02:59;;;;;;;8.00;4.70;;;;;;;22.25;43.72;100159.48;105980;1256;59612;-81
2023/09/11 08:05:27;;;;;;;6.40;4.20;;;;;;;22.47;42.81;100160.31;106112;1256;73583;-82
2023/09/11 08:07:55;;;;;;;6.60;3.60;;;;;;;22.50;42.49;100162.17;106058;1253;69974;-82
2023/09/11 08:10:22;;;;;;;5.40;3.90;;;;;;;22.53;42.41;100161.83;106217;1256;74933;-81
2023/09/11 08:12:50;;;;;;;7.60;4.60;;;;;;;22.62;42.22;100160.48;106446;1253;60060;-82
2023/09/11 08:15:17;;;;;;;6.90;4.20;;;;;;;22.71;42.20;100157.54;106622;1253;59999;-81
2023/09/11 08:17:45;;;;;;;5.10;3.40;;;;;;;22.81;42.21;100158.74;108899;1253;73204;-81
2023/09/11 08:20:14;;;;;;;6.80;2.70;;;;;;;22.88;42.13;100160.56;109021;1253;68568;-82
2023/09/11 08:22:41;;;;;;;10.80;3.10;;;;;;;22.85;41.92;100155.55;107295;1257;72972;-81
2023/09/11 08:25:10;;;;;;;6.00;2.90;;;;;;;22.80;42.01;100151.40;106397;1253;59671;-81
2023/09/11 08:27:37;;;;;;;6.30;3.20;;;;;;;22.71;41.99;100150.39;106197;1256;59737;-81
2023/09/11 08:30:06;;;;;;;5.40;2.80;;;;;;;22.67;42.24;100155.94;106082;1259;73056;-81
2023/09/11 08:32:33;;;;;;;5.60;2.70;;;;;;;22.75;42.44;100157.20;106237;1253;69971;-80
2023/09/11 08:35:02;;;;;;;4.70;2.80;;;;;;;22.92;42.19;100157.02;106225;1258;72360;-82
2023/09/11 08:37:30;;;;;;;5.40;2.80;;;;;;;23.12;42.07;100152.02;106131;1253;60123;-82
2023/09/11 08:39:57;;;;;;;4.10;3.10;;;;;;;23.34;41.88;100146.70;106156;1253;60055;-81
2023/09/11 08:42:25;;;;;;;4.10;2.80;;;;;;;23.59;41.47;100148.73;106196;1254;73409;-81
2023/09/11 08:44:52;;;;;;;7.80;3.20;;;;;;;23.82;41.16;100146.03;105998;1252;70450;-81
2023/09/11 08:47:20;;;;;;;7.00;3.60;;;;;;;23.96;40.76;100138.78;106052;1253;73268;-82
2023/09/11 08:49:52;;;;;;;8.60;3.50;;;;;;;24.11;40.82;100138.70;106006;1253;62431;-81
2023/09/11 08:52:19;;;;;;;4.10;3.10;;;;;;;24.29;40.54;100134.67;105990;1261;59480;-80
2023/09/11 08:54:49;;;;;;;6.90;3.60;;;;;;;24.46;39.90;100136.02;106857;1253;74722;-81
2023/09/11 08:57:17;;;;;;;6.40;3.40;;;;;;;24.54;39.58;100135.50;106497;1253;69213;-82
2023/09/11 08:59:44;;;;;;;7.60;3.40;;;;;;;24.56;39.33;100126.02;106064;1252;72826;-82
2023/09/11 09:02:12;;;;;;;5.70;3.50;;;;;;;24.52;39.43;100121.56;106278;1253;60370;-81
2023/09/11 09:04:39;;;;;;;5.60;3.20;;;;;;;24.62;39.39;100117.78;106101;1253;61189;-82
2023/09/11 09:07:08;;;;;;;4.40;3.00;;;;;;;24.78;38.84;100120.54;106508;1253;72172;-82
2023/09/11 09:09:35;;;;;;;5.60;3.50;;;;;;;24.89;38.94;100114.64;106757;1253;69416;-81
2023/09/11 09:12:03;;;;;;;5.40;3.50;;;;;;;25.24;39.07;100108.45;106109;1256;72718;-82
2023/09/11 09:14:31;;;;;;;5.20;3.60;;;;;;;25.81;38.31;100096.91;106017;1253;61191;-82
2023/09/11 09:17:00;;;;;;;6.10;3.40;;;;;;;26.30;37.76;100093.27;105814;1260;62185;-79
2023/09/11 09:19:27;;;;;;;3.60;3.00;;;;;;;26.88;37.06;100097.48;106250;1253;72671;-82
2023/09/11 09:22:01;;;;;;;3.40;3.00;;;;;;;27.35;35.76;100097.34;108017;1253;69178;-82
2023/09/11 09:24:28;;;;;;;4.90;3.50;;;;;;;27.47;35.59;100090.86;108344;1252;71213;-83
2023/09/11 09:27:07;;;;;;;4.70;3.40;;;;;;;27.51;35.42;100087.20;108476;1252;59256;-81
2023/09/11 09:29:36;;;;;;;6.70;3.10;;;;;;;27.50;35.54;100083.45;108497;1253;60438;-81
2023/09/11 09:32:05;;;;;;;4.90;3.30;;;;;;;27.52;35.38;100084.75;107484;1257;72938;-81
2023/09/11 09:34:33;;;;;;;4.20;3.10;;;;;;;27.49;35.40;100084.16;107070;1253;70190;-82
2023/09/11 09:37:01;;;;;;;3.90;3.10;;;;;;;27.58;35.38;100081.27;106194;1257;71407;-81
2023/09/11 09:39:29;;;;;;;4.70;3.90;;;;;;;27.99;35.41;100078.52;105930;1254;60410;-82
2023/09/11 09:41:58;;;;;;;5.20;3.50;;;;;;;28.72;34.76;100076.83;106670;1253;62155;-82
2023/09/11 09:44:29;;;;;;;5.00;3.20;;;;;;;29.55;33.85;100074.54;108598;1253;74412;-82
2023/09/11 09:47:10;;;;;;;5.40;3.20;;;;;;;30.11;32.00;100074.23;109076;1253;69126;-80
2023/09/11 09:49:44;;;;;;;5.00;3.30;;;;;;;30.00;32.04;100074.21;109055;1253;71561;-81
2023/09/11 09:52:11;;;;;;;5.50;3.20;;;;;;;29.80;32.33;100069.37;107436;1257;60603;-82
2023/09/11 09:54:41;;;;;;;5.80;3.10;;;;;;;29.97;32.26;100065.35;106335;1253;60522;-82
2023/09/11 09:57:10;;;;;;;5.00;3.10;;;;;;;30.48;31.73;100069.75;106346;1252;75743;-82
2023/09/11 09:59:38;;;;;;;3.20;2.90;;;;;;;30.78;30.89;100064.71;106148;1253;70297;-82
2023/09/11 10:02:07;;;;;;;6.00;3.00;;;;;;;30.71;31.02;100058.04;106060;1258;71437;-78
2023/09/11 10:04:34;;;;;;;5.40;2.90;;;;;;;30.68;31.05;100057.77;105919;1252;60614;-81
2023/09/11 10:07:02;;;;;;;5.20;2.90;;;;;;;30.79;30.99;100058.77;105851;1253;60445;-77
2023/09/11 10:09:29;;;;;;;4.10;3.10;;;;;;;31.04;30.82;100055.70;106057;1253;72131;-78
2023/09/11 10:12:01;;;;;;;3.20;2.70;;;;;;;31.51;30.52;100054.36;105941;1257;71102;-79
2023/09/11 10:14:28;;;;;;;7.10;2.80;;;;;;;32.03;29.89;100049.17;106063;1254;73696;-75
2023/09/11 10:16:57;;;;;;;3.40;2.90;;;;;;;32.30;29.43;100051.19;105881;1253;60450;-78
2023/09/11 10:19:27;;;;;;;6.30;2.80;;;;;;;32.51;29.39;100046.30;105761;1258;60517;-76
2023/09/11 10:21:55;;;;;;;8.80;3.10;;;;;;;33.04;29.18;100045.11;105722;1256;73772;-77
2023/09/11 10:24:22;;;;;;;4.50;2.70;;;;;;;33.52;28.63;100045.45;105809;1254;70345;-79
2023/09/11 10:26:56;;;;;;;7.60;3.10;;;;;;;33.91;28.22;100043.67;105902;1252;75058;-76
2023/09/11 10:29:42;;;;;;;4.30;2.80;;;;;;;34.20;27.78;100037.00;106042;1255;60511;-75
2023/09/11 10:32:18;;;;;;;4.50;3.00;;;;;;;34.33;27.68;100035.80;105940;1253;60463;-75
2023/09/11 10:34:45;;;;;;;6.80;3.10;;;;;;;34.20;27.19;100031.41;106788;1253;74898;-78
2023/09/11 10:37:13;;;;;;;3.50;3.10;;;;;;;33.84;27.67;100035.38;108037;1258;71288;-77
2023/09/11 10:39:40;;;;;;;7.00;2.90;;;;;;;33.47;27.54;100033.27;107274;1258;73187;-78
2023/09/11 10:42:08;;;;;;;5.30;3.00;;;;;;;33.01;28.10;100035.86;105868;1253;60423;-76
2023/09/11 10:44:36;;;;;;;7.10;3.30;;;;;;;32.82;28.41;100028.54;106087;1256;61037;-76
2023/09/11 10:47:04;;;;;;;8.20;2.70;;;;;;;32.76;28.30;100027.65;105623;1253;74154;-76
2023/09/11 10:49:37;;;;;;;4.50;3.40;;;;;;;32.73;28.35;100023.64;105981;1253;70300;-79
2023/09/11 10:52:06;;;;;;;3.20;2.80;;;;;;;32.53;28.60;100018.33;106225;1253;72638;-77
2023/09/11 10:54:34;;;;;;;4.30;2.60;;;;;;;32.47;28.70;100019.86;106047;1253;61601;-78
2023/09/11 10:57:01;;;;;;;3.10;2.70;;;;;;;32.57;28.63;100021.39;105789;1253;60397;-78
2023/09/11 10:59:29;;;;;;;7.40;3.60;;;;;;;32.24;28.82;100017.29;105805;1253;73983;-76
2023/09/11 11:01:58;;;;;;;10.50;3.70;;;;;;;31.72;29.29;100014.14;105806;1253;69192;-76
2023/09/11 11:04:26;;;;;;;4.20;2.70;;;;;;;31.28;29.52;100020.70;105867;1253;73211;-78
2023/09/11 11:06:55;;;;;;;8.10;3.00;;;;;;;30.80;30.02;100016.13;105923;1257;60502;-76
2023/09/11 11:09:30;;;;;;;6.60;3.20;;;;;;;30.23;30.55;100013.52;107407;1253;60381;-77
2023/09/11 11:12:08;;;;;;;6.10;3.40;;;;;;;29.52;31.13;100007.66;106315;1253;73030;-79
2023/09/11 11:14:36;;;;;;;5.00;3.00;;;;;;;28.94;31.63;100009.74;105873;1258;69199;-79
2023/09/11 11:17:10;;;;;;;5.20;3.00;;;;;;;28.52;32.12;100013.14;105988;1256;73182;-80
2023/09/11 11:19:59;;;;;;;4.70;2.90;;;;;;;28.13;32.58;100012.42;106185;1253;60494;-77
2023/09/11 11:22:29;;;;;;;4.40;3.20;;;;;;;27.66;32.96;100007.52;105940;1255;60595;-78